sensor_id;sensor_type;location;lat;lon;timestamp;P1;durP1;ratioP1;P2;durP2;ratioP2
5191;SDS011;2615;44.524;11.284;2023-10-31T00:00:05;4.57;;;1.10;;
5191;SDS011;2615;44.524;11.284;2023-10-31T00:02:37;3.47;;;1.67;;
5191;SDS011;2615;44.524;11.284;2023-10-31T00:05:05;5.03;;;1.60;;
5191;SDS011;2615;44.524;11.284;2023-10-31T00:07:34;5.10;;;1.27;;
5191;SDS011;2615;44.524;11.284;2023-10-31T00:10:02;2.73;;;1.07;;
5191;SDS011;2615;44.524;11.284;2023-10-31T00:12:31;4.50;;;1.80;;
5191;SDS011;2615;44.524;11.284;2023-10-31T00:15:01;2.93;;;1.10;;
5191;SDS011;2615;44.524;11.284;2023-10-31T00:17:29;2.60;;;1.20;;
5191;SDS011;2615;44.524;11.284;2023-10-31T00:19:57;3.03;;;1.20;;
5191;SDS011;2615;44.524;11.284;2023-10-31T00:22:26;2.70;;;1.60;;
5191;SDS011;2615;44.524;11.284;2023-10-31T00:24:54;3.90;;;1.60;;
5191;SDS011;2615;44.524;11.284;2023-10-31T00:27:22;3.70;;;1.60;;
5191;SDS011;2615;44.524;11.284;2023-10-31T00:29:51;4.57;;;2.13;;
5191;SDS011;2615;44.524;11.284;2023-10-31T00:32:20;5.67;;;1.30;;
5191;SDS011;2615;44.524;11.284;2023-10-31T00:34:48;6.37;;;2.20;;
5191;SDS011;2615;44.524;11.284;2023-10-31T00:37:16;4.43;;;1.57;;
5191;SDS011;2615;44.524;11.284;2023-10-31T00:39:45;2.50;;;1.37;;
5191;SDS011;2615;44.524;11.284;2023-10-31T00:42:13;3.60;;;1.33;;
5191;SDS011;2615;44.524;11.284;2023-10-31T00:44:42;4.10;;;1.50;;
5191;SDS011;2615;44.524;11.284;2023-10-31T00:47:10;4.80;;;1.67;;
5191;SDS011;2615;44.524;11.284;2023-10-31T00:49:39;4.53;;;1.00;;
5191;SDS011;2615;44.524;11.284;2023-10-31T00:52:07;2.43;;;1.07;;
5191;SDS011;2615;44.524;11.284;2023-10-31T00:54:35;6.23;;;1.80;;
5191;SDS011;2615;44.524;11.284;2023-10-31T00:57:03;6.90;;;1.33;;
5191;SDS011;2615;44.524;11.284;2023-10-31T00:59:32;2.67;;;1.27;;
5191;SDS011;2615;44.524;11.284;2023-10-31T01:02:00;6.33;;;2.10;;
5191;SDS011;2615;44.524;11.284;2023-10-31T01:04:28;3.70;;;1.30;;
5191;SDS011;2615;44.524;11.284;2023-10-31T01:06:58;6.03;;;1.63;;
5191;SDS011;2615;44.524;11.284;2023-10-31T01:09:27;3.03;;;1.30;;
5191;SDS011;2615;44.524;11.284;2023-10-31T01:11:55;3.30;;;1.50;;
5191;SDS011;2615;44.524;11.284;2023-10-31T01:14:23;3.40;;;1.43;;
5191;SDS011;2615;44.524;11.284;2023-10-31T01:16:51;3.47;;;1.57;;
5191;SDS011;2615;44.524;11.284;2023-10-31T01:19:19;5.07;;;1.70;;
5191;SDS011;2615;44.524;11.284;2023-10-31T01:21:47;3.07;;;1.30;;
5191;SDS011;2615;44.524;11.284;2023-10-31T01:24:17;3.33;;;1.77;;
5191;SDS011;2615;44.524;11.284;2023-10-31T01:26:45;4.13;;;1.50;;
5191;SDS011;2615;44.524;11.284;2023-10-31T01:29:13;3.40;;;2.33;;
5191;SDS011;2615;44.524;11.284;2023-10-31T01:31:41;5.10;;;1.80;;
5191;SDS011;2615;44.524;11.284;2023-10-31T01:34:24;3.40;;;1.30;;
5191;SDS011;2615;44.524;11.284;2023-10-31T01:36:53;3.00;;;1.53;;
5191;SDS011;2615;44.524;11.284;2023-10-31T01:39:22;3.37;;;1.70;;
5191;SDS011;2615;44.524;11.284;2023-10-31T01:41:50;4.20;;;1.27;;
5191;SDS011;2615;44.524;11.284;2023-10-31T01:44:20;6.17;;;1.70;;
5191;SDS011;2615;44.524;11.284;2023-10-31T01:46:49;5.07;;;1.60;;
5191;SDS011;2615;44.524;11.284;2023-10-31T01:49:17;2.57;;;1.20;;
5191;SDS011;2615;44.524;11.284;2023-10-31T01:51:45;5.20;;;1.67;;
5191;SDS011;2615;44.524;11.284;2023-10-31T01:54:14;2.83;;;1.40;;
5191;SDS011;2615;44.524;11.284;2023-10-31T01:56:44;4.20;;;1.80;;
5191;SDS011;2615;44.524;11.284;2023-10-31T01:59:14;4.03;;;1.30;;
5191;SDS011;2615;44.524;11.284;2023-10-31T02:01:43;6.00;;;1.70;;
5191;SDS011;2615;44.524;11.284;2023-10-31T02:04:11;2.10;;;1.10;;
5191;SDS011;2615;44.524;11.284;2023-10-31T02:06:39;2.80;;;1.10;;
5191;SDS011;2615;44.524;11.284;2023-10-31T02:09:07;2.90;;;1.23;;
5191;SDS011;2615;44.524;11.284;2023-10-31T02:11:35;3.00;;;1.40;;
5191;SDS011;2615;44.524;11.284;2023-10-31T02:14:06;3.67;;;1.13;;
5191;SDS011;2615;44.524;11.284;2023-10-31T02:16:34;3.00;;;1.50;;
5191;SDS011;2615;44.524;11.284;2023-10-31T02:19:02;3.03;;;1.30;;
5191;SDS011;2615;44.524;11.284;2023-10-31T02:21:31;3.83;;;1.40;;
5191;SDS011;2615;44.524;11.284;2023-10-31T02:24:02;5.50;;;1.57;;
5191;SDS011;2615;44.524;11.284;2023-10-31T02:26:31;3.67;;;1.63;;
5191;SDS011;2615;44.524;11.284;2023-10-31T02:29:00;3.27;;;1.27;;
5191;SDS011;2615;44.524;11.284;2023-10-31T02:31:29;3.07;;;1.20;;
5191;SDS011;2615;44.524;11.284;2023-10-31T02:33:57;4.20;;;2.00;;
5191;SDS011;2615;44.524;11.284;2023-10-31T02:36:25;2.67;;;1.27;;
5191;SDS011;2615;44.524;11.284;2023-10-31T02:38:53;5.93;;;1.37;;
5191;SDS011;2615;44.524;11.284;2023-10-31T02:41:23;5.70;;;1.20;;
5191;SDS011;2615;44.524;11.284;2023-10-31T02:43:51;3.87;;;1.27;;
5191;SDS011;2615;44.524;11.284;2023-10-31T02:46:21;6.63;;;1.90;;
5191;SDS011;2615;44.524;11.284;2023-10-31T02:48:50;3.27;;;1.20;;
5191;SDS011;2615;44.524;11.284;2023-10-31T02:51:18;6.10;;;1.60;;
5191;SDS011;2615;44.524;11.284;2023-10-31T02:53:46;5.10;;;1.40;;
5191;SDS011;2615;44.524;11.284;2023-10-31T02:56:14;2.63;;;1.70;;
5191;SDS011;2615;44.524;11.284;2023-10-31T02:58:44;5.30;;;1.50;;
5191;SDS011;2615;44.524;11.284;2023-10-31T03:01:12;7.10;;;2.27;;
5191;SDS011;2615;44.524;11.284;2023-10-31T03:03:40;2.90;;;1.67;;
5191;SDS011;2615;44.524;11.284;2023-10-31T03:06:08;4.10;;;1.47;;
5191;SDS011;2615;44.524;11.284;2023-10-31T03:08:36;2.73;;;1.17;;
5191;SDS011;2615;44.524;11.284;2023-10-31T03:11:05;3.70;;;2.07;;
5191;SDS011;2615;44.524;11.284;2023-10-31T03:13:33;3.10;;;1.10;;
5191;SDS011;2615;44.524;11.284;2023-10-31T03:16:03;3.83;;;1.50;;
5191;SDS011;2615;44.524;11.284;2023-10-31T03:18:31;6.20;;;2.00;;
5191;SDS011;2615;44.524;11.284;2023-10-31T03:20:59;6.17;;;1.50;;
5191;SDS011;2615;44.524;11.284;2023-10-31T03:23:27;6.90;;;1.53;;
5191;SDS011;2615;44.524;11.284;2023-10-31T03:25:55;3.63;;;1.40;;
5191;SDS011;2615;44.524;11.284;2023-10-31T03:28:23;3.20;;;0.87;;
5191;SDS011;2615;44.524;11.284;2023-10-31T03:30:52;6.97;;;1.30;;
5191;SDS011;2615;44.524;11.284;2023-10-31T03:33:22;8.40;;;1.90;;
5191;SDS011;2615;44.524;11.284;2023-10-31T03:35:50;3.50;;;1.30;;
5191;SDS011;2615;44.524;11.284;2023-10-31T03:38:18;8.83;;;2.17;;
5191;SDS011;2615;44.524;11.284;2023-10-31T03:40:47;2.37;;;1.43;;
5191;SDS011;2615;44.524;11.284;2023-10-31T03:43:15;2.80;;;1.57;;
5191;SDS011;2615;44.524;11.284;2023-10-31T03:45:43;6.13;;;1.57;;
5191;SDS011;2615;44.524;11.284;2023-10-31T03:48:11;4.23;;;1.30;;
5191;SDS011;2615;44.524;11.284;2023-10-31T03:50:40;4.03;;;1.70;;
5191;SDS011;2615;44.524;11.284;2023-10-31T03:53:09;9.93;;;1.60;;
5191;SDS011;2615;44.524;11.284;2023-10-31T03:55:37;3.63;;;1.17;;
5191;SDS011;2615;44.524;11.284;2023-10-31T03:58:05;3.90;;;1.33;;
5191;SDS011;2615;44.524;11.284;2023-10-31T04:00:34;3.03;;;1.20;;
5191;SDS011;2615;44.524;11.284;2023-10-31T04:03:02;5.03;;;1.20;;
5191;SDS011;2615;44.524;11.284;2023-10-31T04:05:30;3.37;;;1.53;;
5191;SDS011;2615;44.524;11.284;2023-10-31T04:07:59;4.63;;;1.10;;
5191;SDS011;2615;44.524;11.284;2023-10-31T04:10:28;4.60;;;1.37;;
5191;SDS011;2615;44.524;11.284;2023-10-31T04:12:56;8.90;;;1.30;;
5191;SDS011;2615;44.524;11.284;2023-10-31T04:15:24;4.40;;;1.57;;
5191;SDS011;2615;44.524;11.284;2023-10-31T04:17:53;6.80;;;1.60;;
5191;SDS011;2615;44.524;11.284;2023-10-31T04:20:21;3.03;;;1.40;;
5191;SDS011;2615;44.524;11.284;2023-10-31T04:22:49;2.80;;;1.27;;
5191;SDS011;2615;44.524;11.284;2023-10-31T04:25:18;8.30;;;1.67;;
5191;SDS011;2615;44.524;11.284;2023-10-31T04:27:47;4.00;;;1.10;;
5191;SDS011;2615;44.524;11.284;2023-10-31T04:30:15;5.70;;;1.50;;
5191;SDS011;2615;44.524;11.284;2023-10-31T04:32:43;2.40;;;1.10;;
5191;SDS011;2615;44.524;11.284;2023-10-31T04:35:12;2.17;;;1.10;;
5191;SDS011;2615;44.524;11.284;2023-10-31T04:37:40;2.77;;;1.00;;
5191;SDS011;2615;44.524;11.284;2023-10-31T04:40:09;2.60;;;1.10;;
5191;SDS011;2615;44.524;11.284;2023-10-31T04:42:39;7.37;;;1.10;;
5191;SDS011;2615;44.524;11.284;2023-10-31T04:45:08;2.33;;;1.17;;
5191;SDS011;2615;44.524;11.284;2023-10-31T04:47:37;4.10;;;1.30;;
5191;SDS011;2615;44.524;11.284;2023-10-31T04:50:05;5.97;;;1.47;;
5191;SDS011;2615;44.524;11.284;2023-10-31T04:52:34;5.10;;;1.10;;
5191;SDS011;2615;44.524;11.284;2023-10-31T04:55:02;8.77;;;2.33;;
5191;SDS011;2615;44.524;11.284;2023-10-31T04:57:30;5.90;;;1.37;;
5191;SDS011;2615;44.524;11.284;2023-10-31T05:00:00;3.53;;;1.20;;
5191;SDS011;2615;44.524;11.284;2023-10-31T05:02:29;5.93;;;1.60;;
5191;SDS011;2615;44.524;11.284;2023-10-31T05:04:58;4.20;;;1.00;;
5191;SDS011;2615;44.524;11.284;2023-10-31T05:07:26;2.40;;;1.03;;
5191;SDS011;2615;44.524;11.284;2023-10-31T05:09:54;4.50;;;1.40;;
5191;SDS011;2615;44.524;11.284;2023-10-31T05:12:23;3.40;;;1.00;;
5191;SDS011;2615;44.524;11.284;2023-10-31T05:14:51;5.30;;;1.50;;
5191;SDS011;2615;44.524;11.284;2023-10-31T05:17:20;4.60;;;1.07;;
5191;SDS011;2615;44.524;11.284;2023-10-31T05:19:49;4.50;;;1.10;;
5191;SDS011;2615;44.524;11.284;2023-10-31T05:22:17;3.03;;;0.90;;
5191;SDS011;2615;44.524;11.284;2023-10-31T05:24:46;5.87;;;0.90;;
5191;SDS011;2615;44.524;11.284;2023-10-31T05:27:14;3.20;;;1.00;;
5191;SDS011;2615;44.524;11.284;2023-10-31T05:29:43;3.43;;;1.00;;
5191;SDS011;2615;44.524;11.284;2023-10-31T05:32:11;3.03;;;1.00;;
5191;SDS011;2615;44.524;11.284;2023-10-31T05:34:40;3.60;;;1.07;;
5191;SDS011;2615;44.524;11.284;2023-10-31T05:37:09;3.60;;;1.00;;
5191;SDS011;2615;44.524;11.284;2023-10-31T05:39:37;3.50;;;0.90;;
5191;SDS011;2615;44.524;11.284;2023-10-31T05:42:05;2.83;;;1.10;;
5191;SDS011;2615;44.524;11.284;2023-10-31T05:44:33;2.07;;;0.97;;
5191;SDS011;2615;44.524;11.284;2023-10-31T05:47:01;3.20;;;1.00;;
5191;SDS011;2615;44.524;11.284;2023-10-31T05:49:30;4.23;;;0.90;;
5191;SDS011;2615;44.524;11.284;2023-10-31T05:51:59;3.60;;;0.80;;
5191;SDS011;2615;44.524;11.284;2023-10-31T05:54:27;4.57;;;1.00;;
5191;SDS011;2615;44.524;11.284;2023-10-31T05:56:55;5.57;;;1.00;;
5191;SDS011;2615;44.524;11.284;2023-10-31T05:59:23;6.93;;;2.60;;
5191;SDS011;2615;44.524;11.284;2023-10-31T06:01:52;3.93;;;0.90;;
5191;SDS011;2615;44.524;11.284;2023-10-31T06:04:20;2.87;;;0.97;;
5191;SDS011;2615;44.524;11.284;2023-10-31T06:06:48;5.70;;;0.90;;
5191;SDS011;2615;44.524;11.284;2023-10-31T06:09:18;3.27;;;0.90;;
5191;SDS011;2615;44.524;11.284;2023-10-31T06:11:46;6.23;;;1.00;;
5191;SDS011;2615;44.524;11.284;2023-10-31T06:14:14;3.83;;;1.13;;
5191;SDS011;2615;44.524;11.284;2023-10-31T06:16:43;3.93;;;0.70;;
5191;SDS011;2615;44.524;11.284;2023-10-31T06:19:11;3.90;;;0.80;;
5191;SDS011;2615;44.524;11.284;2023-10-31T06:21:40;4.53;;;0.97;;
5191;SDS011;2615;44.524;11.284;2023-10-31T06:24:08;8.63;;;1.90;;
5191;SDS011;2615;44.524;11.284;2023-10-31T06:26:38;17.03;;;1.83;;
5191;SDS011;2615;44.524;11.284;2023-10-31T06:29:06;4.30;;;1.13;;
5191;SDS011;2615;44.524;11.284;2023-10-31T06:31:54;9.93;;;1.13;;
5191;SDS011;2615;44.524;11.284;2023-10-31T06:34:23;16.10;;;1.80;;
5191;SDS011;2615;44.524;11.284;2023-10-31T06:36:51;5.07;;;0.83;;
5191;SDS011;2615;44.524;11.284;2023-10-31T06:39:19;4.40;;;1.23;;
5191;SDS011;2615;44.524;11.284;2023-10-31T06:41:50;6.90;;;1.80;;
5191;SDS011;2615;44.524;11.284;2023-10-31T06:44:22;5.20;;;0.73;;
5191;SDS011;2615;44.524;11.284;2023-10-31T06:46:50;9.50;;;0.77;;
5191;SDS011;2615;44.524;11.284;2023-10-31T06:49:18;3.70;;;0.80;;
5191;SDS011;2615;44.524;11.284;2023-10-31T06:51:47;4.60;;;1.60;;
5191;SDS011;2615;44.524;11.284;2023-10-31T06:54:15;2.33;;;0.83;;
5191;SDS011;2615;44.524;11.284;2023-10-31T06:56:43;2.00;;;0.70;;
5191;SDS011;2615;44.524;11.284;2023-10-31T06:59:13;6.20;;;1.00;;
5191;SDS011;2615;44.524;11.284;2023-10-31T07:01:43;3.00;;;0.80;;
5191;SDS011;2615;44.524;11.284;2023-10-31T07:04:13;2.23;;;0.60;;
5191;SDS011;2615;44.524;11.284;2023-10-31T07:06:43;10.97;;;1.90;;
5191;SDS011;2615;44.524;11.284;2023-10-31T07:09:11;7.67;;;0.70;;
5191;SDS011;2615;44.524;11.284;2023-10-31T07:11:40;4.87;;;1.43;;
5191;SDS011;2615;44.524;11.284;2023-10-31T07:14:08;4.43;;;0.93;;
5191;SDS011;2615;44.524;11.284;2023-10-31T07:16:37;4.23;;;0.93;;
5191;SDS011;2615;44.524;11.284;2023-10-31T07:19:06;3.60;;;1.30;;
5191;SDS011;2615;44.524;11.284;2023-10-31T07:21:34;4.83;;;0.90;;
5191;SDS011;2615;44.524;11.284;2023-10-31T07:24:03;3.10;;;1.03;;
5191;SDS011;2615;44.524;11.284;2023-10-31T07:26:31;3.10;;;0.80;;
5191;SDS011;2615;44.524;11.284;2023-10-31T07:28:59;4.40;;;1.27;;
5191;SDS011;2615;44.524;11.284;2023-10-31T07:31:28;3.50;;;1.43;;
5191;SDS011;2615;44.524;11.284;2023-10-31T07:33:57;7.23;;;1.20;;
5191;SDS011;2615;44.524;11.284;2023-10-31T07:36:25;3.93;;;1.03;;
5191;SDS011;2615;44.524;11.284;2023-10-31T07:38:53;4.70;;;1.13;;
5191;SDS011;2615;44.524;11.284;2023-10-31T07:41:21;7.93;;;1.13;;
5191;SDS011;2615;44.524;11.284;2023-10-31T07:43:50;5.50;;;1.30;;
5191;SDS011;2615;44.524;11.284;2023-10-31T07:46:18;2.93;;;1.20;;
5191;SDS011;2615;44.524;11.284;2023-10-31T07:48:46;7.10;;;1.20;;
5191;SDS011;2615;44.524;11.284;2023-10-31T07:51:15;2.30;;;0.60;;
5191;SDS011;2615;44.524;11.284;2023-10-31T07:53:44;3.37;;;0.60;;
5191;SDS011;2615;44.524;11.284;2023-10-31T07:56:16;2.53;;;1.33;;
5191;SDS011;2615;44.524;11.284;2023-10-31T07:58:49;5.50;;;1.40;;
5191;SDS011;2615;44.524;11.284;2023-10-31T08:01:17;3.43;;;0.93;;
5191;SDS011;2615;44.524;11.284;2023-10-31T08:03:46;4.93;;;1.07;;
5191;SDS011;2615;44.524;11.284;2023-10-31T08:06:16;3.20;;;0.90;;
5191;SDS011;2615;44.524;11.284;2023-10-31T08:08:44;5.07;;;0.63;;
5191;SDS011;2615;44.524;11.284;2023-10-31T08:11:12;5.07;;;0.80;;
5191;SDS011;2615;44.524;11.284;2023-10-31T08:13:40;15.40;;;1.03;;
5191;SDS011;2615;44.524;11.284;2023-10-31T08:16:08;8.37;;;0.67;;
5191;SDS011;2615;44.524;11.284;2023-10-31T08:18:37;3.60;;;0.80;;
5191;SDS011;2615;44.524;11.284;2023-10-31T08:21:05;2.10;;;0.63;;
5191;SDS011;2615;44.524;11.284;2023-10-31T08:23:34;8.40;;;0.63;;
5191;SDS011;2615;44.524;11.284;2023-10-31T08:26:04;2.40;;;0.83;;
5191;SDS011;2615;44.524;11.284;2023-10-31T08:28:32;2.30;;;0.80;;
5191;SDS011;2615;44.524;11.284;2023-10-31T08:31:00;10.30;;;1.40;;
5191;SDS011;2615;44.524;11.284;2023-10-31T08:33:30;3.50;;;0.60;;
5191;SDS011;2615;44.524;11.284;2023-10-31T08:35:58;3.50;;;0.97;;
5191;SDS011;2615;44.524;11.284;2023-10-31T08:38:26;5.10;;;0.60;;
5191;SDS011;2615;44.524;11.284;2023-10-31T08:40:59;1.90;;;0.70;;
5191;SDS011;2615;44.524;11.284;2023-10-31T08:43:27;3.80;;;0.90;;
5191;SDS011;2615;44.524;11.284;2023-10-31T08:45:55;1.80;;;0.50;;
5191;SDS011;2615;44.524;11.284;2023-10-31T08:48:23;2.67;;;0.60;;
5191;SDS011;2615;44.524;11.284;2023-10-31T08:50:52;2.23;;;0.77;;
5191;SDS011;2615;44.524;11.284;2023-10-31T08:53:20;3.50;;;0.83;;
5191;SDS011;2615;44.524;11.284;2023-10-31T08:55:49;3.87;;;1.23;;
5191;SDS011;2615;44.524;11.284;2023-10-31T08:58:18;3.30;;;0.63;;
5191;SDS011;2615;44.524;11.284;2023-10-31T09:00:46;1.80;;;0.70;;
5191;SDS011;2615;44.524;11.284;2023-10-31T09:03:15;3.37;;;0.60;;
5191;SDS011;2615;44.524;11.284;2023-10-31T09:05:43;2.40;;;0.60;;
5191;SDS011;2615;44.524;11.284;2023-10-31T09:08:11;4.23;;;0.60;;
5191;SDS011;2615;44.524;11.284;2023-10-31T09:10:39;4.27;;;0.90;;
5191;SDS011;2615;44.524;11.284;2023-10-31T09:13:09;9.23;;;0.90;;
5191;SDS011;2615;44.524;11.284;2023-10-31T09:15:38;2.47;;;0.40;;
5191;SDS011;2615;44.524;11.284;2023-10-31T09:18:07;4.07;;;0.80;;
5191;SDS011;2615;44.524;11.284;2023-10-31T09:20:35;2.03;;;0.70;;
5191;SDS011;2615;44.524;11.284;2023-10-31T09:23:03;1.50;;;0.40;;
5191;SDS011;2615;44.524;11.284;2023-10-31T09:25:32;1.70;;;0.50;;
5191;SDS011;2615;44.524;11.284;2023-10-31T09:28:00;1.70;;;0.50;;
5191;SDS011;2615;44.524;11.284;2023-10-31T09:30:28;1.63;;;0.50;;
5191;SDS011;2615;44.524;11.284;2023-10-31T09:32:58;2.43;;;0.50;;
5191;SDS011;2615;44.524;11.284;2023-10-31T09:35:26;2.27;;;0.50;;
5191;SDS011;2615;44.524;11.284;2023-10-31T09:37:54;1.47;;;0.30;;
5191;SDS011;2615;44.524;11.284;2023-10-31T09:40:24;1.50;;;0.40;;
5191;SDS011;2615;44.524;11.284;2023-10-31T09:42:52;3.97;;;1.13;;
5191;SDS011;2615;44.524;11.284;2023-10-31T09:45:20;1.87;;;0.60;;
5191;SDS011;2615;44.524;11.284;2023-10-31T09:47:48;4.00;;;1.50;;
5191;SDS011;2615;44.524;11.284;2023-10-31T09:50:18;1.80;;;0.80;;
5191;SDS011;2615;44.524;11.284;2023-10-31T09:52:46;2.47;;;0.43;;
5191;SDS011;2615;44.524;11.284;2023-10-31T09:55:14;2.53;;;0.53;;
5191;SDS011;2615;44.524;11.284;2023-10-31T09:57:43;2.10;;;0.60;;
5191;SDS011;2615;44.524;11.284;2023-10-31T10:00:12;2.63;;;0.50;;
5191;SDS011;2615;44.524;11.284;2023-10-31T10:02:40;3.20;;;0.50;;
5191;SDS011;2615;44.524;11.284;2023-10-31T10:05:09;2.20;;;0.70;;
5191;SDS011;2615;44.524;11.284;2023-10-31T10:07:39;3.53;;;0.60;;
5191;SDS011;2615;44.524;11.284;2023-10-31T10:10:10;1.60;;;0.47;;
5191;SDS011;2615;44.524;11.284;2023-10-31T10:12:41;1.70;;;0.40;;
5191;SDS011;2615;44.524;11.284;2023-10-31T10:15:10;1.60;;;0.50;;
5191;SDS011;2615;44.524;11.284;2023-10-31T10:17:39;1.60;;;0.30;;
5191;SDS011;2615;44.524;11.284;2023-10-31T10:20:16;2.43;;;0.40;;
5191;SDS011;2615;44.524;11.284;2023-10-31T10:22:46;1.53;;;0.37;;
5191;SDS011;2615;44.524;11.284;2023-10-31T10:25:15;1.80;;;0.50;;
5191;SDS011;2615;44.524;11.284;2023-10-31T10:27:45;1.53;;;0.33;;
5191;SDS011;2615;44.524;11.284;2023-10-31T10:30:14;1.60;;;0.47;;
5191;SDS011;2615;44.524;11.284;2023-10-31T10:32:43;2.07;;;0.57;;
5191;SDS011;2615;44.524;11.284;2023-10-31T10:35:11;1.50;;;0.40;;
5191;SDS011;2615;44.524;11.284;2023-10-31T10:37:40;1.80;;;0.43;;
5191;SDS011;2615;44.524;11.284;2023-10-31T10:40:11;1.50;;;0.40;;
5191;SDS011;2615;44.524;11.284;2023-10-31T10:42:42;3.63;;;0.60;;
5191;SDS011;2615;44.524;11.284;2023-10-31T10:45:14;2.00;;;0.50;;
5191;SDS011;2615;44.524;11.284;2023-10-31T10:47:45;1.70;;;0.60;;
5191;SDS011;2615;44.524;11.284;2023-10-31T10:50:15;2.20;;;0.87;;
5191;SDS011;2615;44.524;11.284;2023-10-31T10:52:48;1.83;;;0.50;;
5191;SDS011;2615;44.524;11.284;2023-10-31T10:55:20;2.37;;;0.50;;
5191;SDS011;2615;44.524;11.284;2023-10-31T10:57:52;2.10;;;0.40;;
5191;SDS011;2615;44.524;11.284;2023-10-31T11:00:27;6.37;;;0.60;;
5191;SDS011;2615;44.524;11.284;2023-10-31T11:02:56;2.23;;;0.50;;
5191;SDS011;2615;44.524;11.284;2023-10-31T11:05:25;2.23;;;0.50;;
5191;SDS011;2615;44.524;11.284;2023-10-31T11:07:53;1.70;;;0.50;;
5191;SDS011;2615;44.524;11.284;2023-10-31T11:10:27;1.50;;;0.30;;
5191;SDS011;2615;44.524;11.284;2023-10-31T11:12:56;1.50;;;0.30;;
5191;SDS011;2615;44.524;11.284;2023-10-31T11:15:25;2.57;;;0.43;;
5191;SDS011;2615;44.524;11.284;2023-10-31T11:17:54;3.30;;;0.50;;
5191;SDS011;2615;44.524;11.284;2023-10-31T11:20:26;2.43;;;0.50;;
5191;SDS011;2615;44.524;11.284;2023-10-31T11:22:55;2.27;;;0.50;;
5191;SDS011;2615;44.524;11.284;2023-10-31T11:25:26;1.60;;;0.30;;
5191;SDS011;2615;44.524;11.284;2023-10-31T11:28:10;5.10;;;0.60;;
5191;SDS011;2615;44.524;11.284;2023-10-31T11:30:39;3.23;;;0.60;;
5191;SDS011;2615;44.524;11.284;2023-10-31T11:33:11;4.00;;;0.60;;
5191;SDS011;2615;44.524;11.284;2023-10-31T11:35:40;2.10;;;0.70;;
5191;SDS011;2615;44.524;11.284;2023-10-31T11:38:11;2.37;;;0.63;;
5191;SDS011;2615;44.524;11.284;2023-10-31T11:40:57;1.67;;;0.40;;
5191;SDS011;2615;44.524;11.284;2023-10-31T11:46:20;1.67;;;0.50;;
5191;SDS011;2615;44.524;11.284;2023-10-31T11:48:51;4.33;;;0.80;;
5191;SDS011;2615;44.524;11.284;2023-10-31T11:51:21;1.93;;;0.50;;
5191;SDS011;2615;44.524;11.284;2023-10-31T11:53:49;1.97;;;0.40;;
5191;SDS011;2615;44.524;11.284;2023-10-31T11:56:20;1.80;;;0.67;;
5191;SDS011;2615;44.524;11.284;2023-10-31T11:58:54;2.07;;;0.50;;
5191;SDS011;2615;44.524;11.284;2023-10-31T12:01:23;2.23;;;0.53;;
5191;SDS011;2615;44.524;11.284;2023-10-31T12:03:52;3.30;;;0.40;;
5191;SDS011;2615;44.524;11.284;2023-10-31T12:06:20;1.80;;;0.50;;
5191;SDS011;2615;44.524;11.284;2023-10-31T12:08:48;1.60;;;0.30;;
5191;SDS011;2615;44.524;11.284;2023-10-31T12:11:18;2.47;;;0.30;;
5191;SDS011;2615;44.524;11.284;2023-10-31T12:13:53;3.40;;;0.50;;
5191;SDS011;2615;44.524;11.284;2023-10-31T12:16:23;1.60;;;0.30;;
5191;SDS011;2615;44.524;11.284;2023-10-31T12:18:56;1.77;;;0.50;;
5191;SDS011;2615;44.524;11.284;2023-10-31T12:21:35;1.90;;;0.40;;
5191;SDS011;2615;44.524;11.284;2023-10-31T12:24:04;1.73;;;0.40;;
5191;SDS011;2615;44.524;11.284;2023-10-31T12:26:35;2.37;;;0.50;;
5191;SDS011;2615;44.524;11.284;2023-10-31T12:29:07;18.13;;;0.83;;
5191;SDS011;2615;44.524;11.284;2023-10-31T12:31:38;2.10;;;0.60;;
5191;SDS011;2615;44.524;11.284;2023-10-31T12:34:08;1.80;;;0.33;;
5191;SDS011;2615;44.524;11.284;2023-10-31T12:36:36;2.13;;;0.50;;
5191;SDS011;2615;44.524;11.284;2023-10-31T12:39:06;2.93;;;0.50;;
5191;SDS011;2615;44.524;11.284;2023-10-31T12:41:37;1.63;;;0.37;;
5191;SDS011;2615;44.524;11.284;2023-10-31T12:44:07;2.23;;;0.40;;
5191;SDS011;2615;44.524;11.284;2023-10-31T12:46:38;3.27;;;0.50;;
5191;SDS011;2615;44.524;11.284;2023-10-31T12:49:10;2.17;;;0.40;;
5191;SDS011;2615;44.524;11.284;2023-10-31T12:51:54;2.47;;;0.43;;
5191;SDS011;2615;44.524;11.284;2023-10-31T12:54:30;3.10;;;0.67;;
5191;SDS011;2615;44.524;11.284;2023-10-31T12:57:02;3.07;;;0.43;;
5191;SDS011;2615;44.524;11.284;2023-10-31T12:59:31;3.73;;;0.80;;
5191;SDS011;2615;44.524;11.284;2023-10-31T13:02:01;1.90;;;0.40;;
5191;SDS011;2615;44.524;11.284;2023-10-31T13:04:30;5.23;;;0.63;;
5191;SDS011;2615;44.524;11.284;2023-10-31T13:07:00;1.90;;;0.40;;
5191;SDS011;2615;44.524;11.284;2023-10-31T13:09:29;1.80;;;0.33;;
5191;SDS011;2615;44.524;11.284;2023-10-31T13:11:59;2.13;;;0.50;;
5191;SDS011;2615;44.524;11.284;2023-10-31T13:14:30;3.53;;;0.50;;
5191;SDS011;2615;44.524;11.284;2023-10-31T13:16:58;2.43;;;0.50;;
5191;SDS011;2615;44.524;11.284;2023-10-31T13:19:26;1.80;;;0.40;;
5191;SDS011;2615;44.524;11.284;2023-10-31T13:21:55;2.90;;;0.80;;
5191;SDS011;2615;44.524;11.284;2023-10-31T13:24:23;1.63;;;0.40;;
5191;SDS011;2615;44.524;11.284;2023-10-31T13:26:51;2.30;;;0.60;;
5191;SDS011;2615;44.524;11.284;2023-10-31T13:29:20;2.03;;;0.60;;
5191;SDS011;2615;44.524;11.284;2023-10-31T13:31:52;2.40;;;0.60;;
5191;SDS011;2615;44.524;11.284;2023-10-31T13:34:21;2.53;;;0.90;;
5191;SDS011;2615;44.524;11.284;2023-10-31T13:36:50;5.00;;;0.63;;
5191;SDS011;2615;44.524;11.284;2023-10-31T13:39:20;2.10;;;0.50;;
5191;SDS011;2615;44.524;11.284;2023-10-31T13:41:50;4.07;;;1.07;;
5191;SDS011;2615;44.524;11.284;2023-10-31T13:44:18;2.07;;;0.70;;
5191;SDS011;2615;44.524;11.284;2023-10-31T13:46:47;3.50;;;0.83;;
5191;SDS011;2615;44.524;11.284;2023-10-31T13:49:15;3.97;;;1.00;;
5191;SDS011;2615;44.524;11.284;2023-10-31T13:51:45;2.83;;;0.77;;
5191;SDS011;2615;44.524;11.284;2023-10-31T13:54:14;2.33;;;0.67;;
5191;SDS011;2615;44.524;11.284;2023-10-31T13:56:42;3.20;;;0.80;;
5191;SDS011;2615;44.524;11.284;2023-10-31T13:59:10;2.43;;;0.67;;
5191;SDS011;2615;44.524;11.284;2023-10-31T14:01:38;3.03;;;1.10;;
5191;SDS011;2615;44.524;11.284;2023-10-31T14:04:08;16.63;;;1.30;;
5191;SDS011;2615;44.524;11.284;2023-10-31T14:06:37;2.43;;;0.80;;
5191;SDS011;2615;44.524;11.284;2023-10-31T14:09:05;6.77;;;1.40;;
5191;SDS011;2615;44.524;11.284;2023-10-31T14:11:34;3.70;;;1.00;;
5191;SDS011;2615;44.524;11.284;2023-10-31T14:14:03;5.90;;;1.77;;
5191;SDS011;2615;44.524;11.284;2023-10-31T14:16:35;7.30;;;1.47;;
5191;SDS011;2615;44.524;11.284;2023-10-31T14:19:03;3.43;;;1.07;;
5191;SDS011;2615;44.524;11.284;2023-10-31T14:21:34;5.60;;;1.70;;
5191;SDS011;2615;44.524;11.284;2023-10-31T14:24:02;3.83;;;1.40;;
5191;SDS011;2615;44.524;11.284;2023-10-31T14:26:38;8.87;;;1.57;;
5191;SDS011;2615;44.524;11.284;2023-10-31T14:29:07;6.80;;;1.10;;
5191;SDS011;2615;44.524;11.284;2023-10-31T14:31:38;4.67;;;1.40;;
5191;SDS011;2615;44.524;11.284;2023-10-31T14:34:07;9.20;;;1.63;;
5191;SDS011;2615;44.524;11.284;2023-10-31T14:36:37;7.00;;;1.47;;
5191;SDS011;2615;44.524;11.284;2023-10-31T14:39:05;5.43;;;1.17;;
5191;SDS011;2615;44.524;11.284;2023-10-31T14:41:34;4.53;;;1.40;;
5191;SDS011;2615;44.524;11.284;2023-10-31T14:44:03;8.63;;;1.80;;
5191;SDS011;2615;44.524;11.284;2023-10-31T14:46:31;5.80;;;2.00;;
5191;SDS011;2615;44.524;11.284;2023-10-31T14:48:59;4.33;;;1.27;;
5191;SDS011;2615;44.524;11.284;2023-10-31T14:51:28;5.03;;;1.73;;
5191;SDS011;2615;44.524;11.284;2023-10-31T14:53:57;4.57;;;1.10;;
5191;SDS011;2615;44.524;11.284;2023-10-31T14:56:25;4.57;;;0.87;;
5191;SDS011;2615;44.524;11.284;2023-10-31T14:58:56;7.67;;;1.07;;
5191;SDS011;2615;44.524;11.284;2023-10-31T15:01:24;5.17;;;1.13;;
5191;SDS011;2615;44.524;11.284;2023-10-31T15:03:52;3.40;;;1.50;;
5191;SDS011;2615;44.524;11.284;2023-10-31T15:06:21;7.73;;;1.70;;
5191;SDS011;2615;44.524;11.284;2023-10-31T15:08:49;6.90;;;1.27;;
5191;SDS011;2615;44.524;11.284;2023-10-31T15:11:19;6.10;;;1.40;;
5191;SDS011;2615;44.524;11.284;2023-10-31T15:13:47;6.00;;;1.50;;